Time;durP1;ratioP1;P1;durP2;ratioP2;P2;SDS_P1;SDS_P2;PMS_P1;PMS_P2;Temp;Humidity;BMP_temperature;BMP_pressure;BME280_temperature;BME280_humidity;BME280_pressure;Samples;Min_cycle;Max_cycle;Signal;HPM_P1;HPM_P2
2023/08/18 00:02:11;;;;;;;;;;;17.50;99.90;;;;;;5029243;28;19955;-43
2023/08/18 00:04:38;;;;;;;;;;;17.50;99.90;;;;;;5015380;28;19925;-43
2023/08/18 00:07:05;;;;;;;;;;;17.50;99.90;;;;;;5006565;28;19957;-44
2023/08/18 00:09:32;;;;;;;;;;;17.50;99.90;;;;;;5032109;28;19972;-42
2023/08/18 00:11:58;;;;;;;;;;;17.40;99.90;;;;;;5032336;28;19979;-44
2023/08/18 00:14:25;;;;;;;;;;;17.40;99.90;;;;;;5012719;28;19971;-44
2023/08/18 00:16:53;;;;;;;;;;;17.40;99.90;;;;;;5014027;28;19929;-44
2023/08/18 00:19:20;;;;;;;;;;;17.40;99.90;;;;;;5031165;28;19959;-43
2023/08/18 00:21:46;;;;;;;;;;;17.40;99.90;;;;;;5014744;28;19925;-44
2023/08/18 00:24:13;;;;;;;;;;;17.40;99.90;;;;;;5004638;28;20014;-44
2023/08/18 00:26:40;;;;;;;;;;;17.40;99.90;;;;;;5028567;28;20054;-43
2023/08/18 00:29:06;;;;;;;;;;;17.40;99.90;;;;;;5035676;28;19979;-44
2023/08/18 00:31:33;;;;;;;;;;;17.40;99.90;;;;;;5035566;28;20300;-44
2023/08/18 00:34:01;;;;;;;;;;;17.40;99.90;;;;;;5036064;28;20318;-43
2023/08/18 00:36:30;;;;;;;;;;;17.40;99.90;;;;;;5023272;28;20301;-44
2023/08/18 00:38:56;;;;;;;;;;;17.40;99.90;;;;;;5032902;28;19978;-44
2023/08/18 00:41:23;;;;;;;;;;;17.40;99.90;;;;;;5032327;28;20025;-43
2023/08/18 00:43:50;;;;;;;;;;;17.40;99.90;;;;;;5023281;28;19932;-43
2023/08/18 00:46:16;;;;;;;;;;;17.40;99.90;;;;;;5017804;28;19937;-43
2023/08/18 00:48:43;;;;;;;;;;;17.40;99.90;;;;;;5034670;28;19979;-44
2023/08/18 00:51:11;;;;;;;;;;;17.40;99.90;;;;;;5034882;28;19932;-44
2023/08/18 00:53:38;;;;;;;;;;;17.40;99.90;;;;;;5018014;28;19932;-43
2023/08/18 00:56:06;;;;;;;;;;;17.30;99.90;;;;;;5013465;28;19932;-43
2023/08/18 00:58:33;;;;;;;;;;;17.30;99.90;;;;;;5035065;28;19940;-44
2023/08/18 01:00:59;;;;;;;;;;;17.30;99.90;;;;;;5012757;28;19932;-43
2023/08/18 01:03:26;;;;;;;;;;;17.40;99.90;;;;;;5001521;28;20051;-43
2023/08/18 01:05:53;;;;;;;;;;;17.30;99.90;;;;;;4989262;28;20428;-44
2023/08/18 01:08:21;;;;;;;;;;;17.30;99.90;;;;;;5004978;28;19926;-44
2023/08/18 01:10:50;;;;;;;;;;;17.30;99.90;;;;;;4999815;28;19932;-44
2023/08/18 01:13:17;;;;;;;;;;;17.30;99.90;;;;;;5014559;28;19929;-43
2023/08/18 01:15:44;;;;;;;;;;;17.30;99.90;;;;;;4998352;28;20444;-43
2023/08/18 01:18:10;;;;;;;;;;;17.30;99.90;;;;;;4994285;28;19964;-44
2023/08/18 01:20:37;;;;;;;;;;;17.30;99.90;;;;;;5009488;28;19929;-43
2023/08/18 01:23:05;;;;;;;;;;;17.30;99.90;;;;;;4983920;28;19988;-44
2023/08/18 01:25:32;;;;;;;;;;;17.30;99.90;;;;;;4997644;28;20436;-44
2023/08/18 01:27:59;;;;;;;;;;;17.30;99.90;;;;;;5014494;28;19979;-43
2023/08/18 01:30:27;;;;;;;;;;;17.20;99.90;;;;;;4995472;28;19976;-44
2023/08/18 01:32:55;;;;;;;;;;;17.20;99.90;;;;;;5028538;28;20439;-44
2023/08/18 01:35:22;;;;;;;;;;;17.30;99.90;;;;;;5000247;28;19972;-42
2023/08/18 01:37:48;;;;;;;;;;;17.20;99.90;;;;;;5007851;28;20393;-43
2023/08/18 01:40:17;;;;;;;;;;;17.20;99.90;;;;;;5008027;28;19933;-44
2023/08/18 01:42:44;;;;;;;;;;;17.20;99.90;;;;;;5022462;28;19929;-43
2023/08/18 01:45:11;;;;;;;;;;;17.20;99.90;;;;;;5029881;28;19925;-44
2023/08/18 01:47:38;;;;;;;;;;;17.20;99.90;;;;;;5017943;28;19925;-43
2023/08/18 01:50:06;;;;;;;;;;;17.20;99.90;;;;;;5020067;28;19925;-44
2023/08/18 01:52:32;;;;;;;;;;;17.20;99.90;;;;;;5006508;28;20385;-43
2023/08/18 01:54:59;;;;;;;;;;;17.20;99.90;;;;;;5024873;28;19925;-43
2023/08/18 01:57:27;;;;;;;;;;;17.20;99.90;;;;;;5016659;28;20361;-42
2023/08/18 01:59:54;;;;;;;;;;;17.10;99.90;;;;;;5033922;28;20357;-43
2023/08/18 02:02:20;;;;;;;;;;;17.20;99.90;;;;;;5026769;28;19929;-43
2023/08/18 02:04:47;;;;;;;;;;;17.20;99.90;;;;;;5007367;28;20474;-43
2023/08/18 02:07:14;;;;;;;;;;;17.20;99.90;;;;;;5025266;28;19929;-43
2023/08/18 02:09:40;;;;;;;;;;;17.20;99.90;;;;;;5007400;28;19925;-43
2023/08/18 02:12:07;;;;;;;;;;;17.10;99.90;;;;;;5017185;28;20049;-43
2023/08/18 02:14:36;;;;;;;;;;;17.20;99.90;;;;;;5033773;28;19925;-43
2023/08/18 02:17:03;;;;;;;;;;;17.20;99.90;;;;;;5000386;28;19972;-43
2023/08/18 02:19:30;;;;;;;;;;;17.20;99.90;;;;;;5025486;28;19967;-43
2023/08/18 02:21:56;;;;;;;;;;;17.10;99.90;;;;;;5003427;28;19929;-43
2023/08/18 02:24:23;;;;;;;;;;;17.10;99.90;;;;;;5017405;28;19934;-43
2023/08/18 02:26:50;;;;;;;;;;;17.10;99.90;;;;;;5027423;28;19932;-43
2023/08/18 02:29:16;;;;;;;;;;;17.10;99.90;;;;;;5032252;28;20274;-43
2023/08/18 02:31:44;;;;;;;;;;;17.10;99.90;;;;;;5032547;28;19950;-43
2023/08/18 02:34:11;;;;;;;;;;;17.10;99.90;;;;;;5016792;28;20377;-42
2023/08/18 02:36:38;;;;;;;;;;;17.10;99.90;;;;;;5007621;28;20016;-43
2023/08/18 02:39:04;;;;;;;;;;;17.10;99.90;;;;;;5019144;28;19972;-43
2023/08/18 02:41:31;;;;;;;;;;;17.10;99.90;;;;;;5017206;28;20658;-43
2023/08/18 02:43:58;;;;;;;;;;;17.10;99.90;;;;;;5033960;28;20286;-43
2023/08/18 02:46:24;;;;;;;;;;;17.00;99.90;;;;;;5032997;28;19925;-43
2023/08/18 02:48:52;;;;;;;;;;;17.00;99.90;;;;;;5013744;28;20301;-43
2023/08/18 02:51:19;;;;;;;;;;;17.00;99.90;;;;;;5020225;28;19925;-43
2023/08/18 02:53:48;;;;;;;;;;;17.00;99.90;;;;;;4998602;28;19929;-43
2023/08/18 02:56:15;;;;;;;;;;;17.00;99.90;;;;;;5013871;28;20342;-43
2023/08/18 02:58:42;;;;;;;;;;;17.00;99.90;;;;;;5033210;28;19933;-43
2023/08/18 03:01:08;;;;;;;;;;;17.00;99.90;;;;;;5007426;28;20007;-43
2023/08/18 03:03:35;;;;;;;;;;;17.10;99.90;;;;;;5024193;28;19971;-43
2023/08/18 03:06:03;;;;;;;;;;;17.00;99.90;;;;;;5028476;28;20003;-43
2023/08/18 03:08:30;;;;;;;;;;;17.00;99.90;;;;;;5014520;28;20416;-43
2023/08/18 03:10:57;;;;;;;;;;;17.00;99.90;;;;;;5013950;28;19926;-43
2023/08/18 03:13:24;;;;;;;;;;;16.90;99.90;;;;;;5012212;28;19963;-43
2023/08/18 03:15:50;;;;;;;;;;;16.90;99.90;;;;;;5027047;28;19926;-43
2023/08/18 03:18:17;;;;;;;;;;;17.00;99.90;;;;;;5002438;28;19925;-42
2023/08/18 03:20:46;;;;;;;;;;;17.00;99.90;;;;;;5031838;28;19979;-43
2023/08/18 03:23:14;;;;;;;;;;;17.00;99.90;;;;;;5017238;28;19925;-42
2023/08/18 03:25:41;;;;;;;;;;;17.00;99.90;;;;;;5029667;28;19940;-43
2023/08/18 03:28:08;;;;;;;;;;;17.00;99.90;;;;;;5028963;28;19929;-43
2023/08/18 03:30:36;;;;;;;;;;;17.00;99.90;;;;;;5032389;28;19925;-43
2023/08/18 03:33:03;;;;;;;;;;;17.00;99.90;;;;;;5016636;28;19987;-43
2023/08/18 03:35:31;;;;;;;;;;;17.00;99.90;;;;;;5026869;28;20309;-43
2023/08/18 03:37:58;;;;;;;;;;;17.00;99.90;;;;;;5031081;28;19933;-43
2023/08/18 03:40:26;;;;;;;;;;;17.00;99.90;;;;;;5013482;28;19943;-43
2023/08/18 03:42:53;;;;;;;;;;;17.00;99.90;;;;;;4994137;28;20273;-43
2023/08/18 03:45:19;;;;;;;;;;;17.00;99.90;;;;;;5029293;28;19925;-42
2023/08/18 03:47:46;;;;;;;;;;;17.00;99.90;;;;;;4997671;28;19929;-43
2023/08/18 03:50:13;;;;;;;;;;;17.00;99.90;;;;;;5007872;28;19926;-43
2023/08/18 03:52:39;;;;;;;;;;;17.00;99.90;;;;;;5025509;28;20427;-43
2023/08/18 03:55:07;;;;;;;;;;;17.00;99.90;;;;;;5032052;28;19975;-43
2023/08/18 03:57:35;;;;;;;;;;;17.00;99.90;;;;;;5014454;28;19929;-42
2023/08/18 04:00:03;;;;;;;;;;;17.00;99.90;;;;;;5011143;28;20431;-44
2023/08/18 04:02:29;;;;;;;;;;;17.00;99.90;;;;;;5021022;28;20397;-43
2023/08/18 04:04:56;;;;;;;;;;;17.00;99.90;;;;;;5031216;28;20307;-43
2023/08/18 04:07:23;;;;;;;;;;;17.00;99.90;;;;;;5026464;28;19929;-43
2023/08/18 04:09:49;;;;;;;;;;;17.00;99.90;;;;;;5024198;28;20384;-43
2023/08/18 04:12:16;;;;;;;;;;;17.00;99.90;;;;;;5020865;28;20519;-43
2023/08/18 04:14:44;;;;;;;;;;;17.00;99.90;;;;;;5022049;28;20441;-43
2023/08/18 04:17:11;;;;;;;;;;;17.00;99.90;;;;;;5025701;28;19925;-43
2023/08/18 04:19:38;;;;;;;;;;;17.00;99.90;;;;;;5013641;28;20345;-43
2023/08/18 04:22:05;;;;;;;;;;;17.00;99.90;;;;;;5029409;28;19929;-43
2023/08/18 04:24:31;;;;;;;;;;;17.00;99.90;;;;;;5029631;28;19925;-43
2023/08/18 04:27:00;;;;;;;;;;;17.00;99.90;;;;;;5001142;28;19936;-43
2023/08/18 04:29:26;;;;;;;;;;;17.00;99.90;;;;;;5027878;28;19959;-44
2023/08/18 04:31:54;;;;;;;;;;;17.00;99.90;;;;;;5018280;28;19930;-43
2023/08/18 04:34:21;;;;;;;;;;;17.00;99.90;;;;;;5021430;28;19925;-44
2023/08/18 04:36:48;;;;;;;;;;;17.00;99.90;;;;;;5030260;28;19925;-43
2023/08/18 04:39:15;;;;;;;;;;;17.00;99.90;;;;;;5024050;28;19971;-43
2023/08/18 04:41:42;;;;;;;;;;;17.00;99.90;;;;;;5031546;28;20014;-43
2023/08/18 04:44:09;;;;;;;;;;;17.00;99.90;;;;;;5030701;28;19925;-43
2023/08/18 04:46:35;;;;;;;;;;;17.10;99.90;;;;;;5031147;28;20308;-42
2023/08/18 04:49:04;;;;;;;;;;;17.00;99.90;;;;;;5018316;28;19925;-43
2023/08/18 04:51:31;;;;;;;;;;;17.00;99.90;;;;;;5022823;28;20286;-43
2023/08/18 04:53:58;;;;;;;;;;;17.00;99.90;;;;;;5007691;28;20458;-43
2023/08/18 04:56:24;;;;;;;;;;;16.90;99.90;;;;;;5026841;28;19968;-42
2023/08/18 04:58:51;;;;;;;;;;;17.00;99.90;;;;;;5006436;28;19955;-43
2023/08/18 05:01:18;;;;;;;;;;;17.00;99.90;;;;;;5027483;28;20332;-43
2023/08/18 05:03:44;;;;;;;;;;;17.00;99.90;;;;;;5009647;28;19929;-43
2023/08/18 05:06:13;;;;;;;;;;;17.00;99.90;;;;;;5031113;28;19971;-43
2023/08/18 05:08:40;;;;;;;;;;;17.00;99.90;;;;;;5031332;28;19929;-43
2023/08/18 05:11:07;;;;;;;;;;;17.00;99.90;;;;;;5001098;28;20293;-43
2023/08/18 05:13:34;;;;;;;;;;;17.00;99.90;;;;;;5022236;28;19925;-44
2023/08/18 05:16:00;;;;;;;;;;;17.00;99.90;;;;;;5025572;28;20421;-44
2023/08/18 05:18:30;;;;;;;;;;;17.00;99.90;;;;;;5018768;28;20290;-44
2023/08/18 05:20:57;;;;;;;;;;;17.00;99.90;;;;;;5010890;28;20434;-44
2023/08/18 05:23:25;;;;;;;;;;;17.00;99.90;;;;;;5009135;28;19957;-44
2023/08/18 05:25:54;;;;;;;;;;;17.10;99.90;;;;;;5011832;28;19979;-43
2023/08/18 05:28:21;;;;;;;;;;;17.10;99.90;;;;;;5014724;28;19925;-44
2023/08/18 05:30:48;;;;;;;;;;;17.10;99.90;;;;;;5012114;28;19940;-44
2023/08/18 05:33:14;;;;;;;;;;;17.10;99.90;;;;;;5001028;28;19929;-43
2023/08/18 05:35:41;;;;;;;;;;;17.10;99.90;;;;;;5014469;28;19933;-44
2023/08/18 05:38:10;;;;;;;;;;;17.10;99.90;;;;;;5004784;28;19978;-44
2023/08/18 05:40:40;;;;;;;;;;;17.10;99.90;;;;;;5031466;28;20328;-44
2023/08/18 05:43:07;;;;;;;;;;;17.20;99.90;;;;;;5027855;28;19933;-44
2023/08/18 05:45:34;;;;;;;;;;;17.20;99.90;;;;;;4999220;28;19932;-43
2023/08/18 05:48:01;;;;;;;;;;;17.10;99.90;;;;;;5013631;28;19925;-43
2023/08/18 05:50:28;;;;;;;;;;;17.10;99.90;;;;;;5012697;28;20388;-44
2023/08/18 05:52:54;;;;;;;;;;;17.10;99.90;;;;;;5008696;28;19929;-44
2023/08/18 05:55:21;;;;;;;;;;;17.10;99.90;;;;;;5032615;28;20331;-43
2023/08/18 05:57:49;;;;;;;;;;;17.10;99.90;;;;;;5033412;28;20351;-43
2023/08/18 06:00:16;;;;;;;;;;;17.10;99.90;;;;;;5021567;28;19926;-44
2023/08/18 06:02:43;;;;;;;;;;;17.20;99.90;;;;;;5004167;28;19929;-43
2023/08/18 06:05:11;;;;;;;;;;;17.10;99.90;;;;;;4993043;28;19929;-42
2023/08/18 06:07:39;;;;;;;;;;;17.20;99.90;;;;;;4990376;28;19985;-43
2023/08/18 06:10:06;;;;;;;;;;;17.20;99.90;;;;;;4990909;28;19938;-43
2023/08/18 06:12:33;;;;;;;;;;;17.30;99.90;;;;;;4979403;28;20534;-43
2023/08/18 06:15:01;;;;;;;;;;;17.30;99.90;;;;;;5008130;28;19932;-43
2023/08/18 06:17:28;;;;;;;;;;;17.20;99.90;;;;;;5004011;28;19926;-43
2023/08/18 06:19:54;;;;;;;;;;;17.30;99.90;;;;;;5016345;28;19933;-44
2023/08/18 06:22:21;;;;;;;;;;;17.30;99.90;;;;;;5003428;28;19929;-44
2023/08/18 06:24:48;;;;;;;;;;;17.30;99.90;;;;;;4981860;28;19933;-43
2023/08/18 06:27:14;;;;;;;;;;;17.40;99.90;;;;;;5007527;28;19976;-44
2023/08/18 06:29:41;;;;;;;;;;;17.40;99.90;;;;;;5008042;28;19925;-43
2023/08/18 06:32:09;;;;;;;;;;;17.40;99.90;;;;;;5000943;28;20018;-42
2023/08/18 06:34:36;;;;;;;;;;;17.40;99.90;;;;;;4997472;28;20189;-43
2023/08/18 06:37:02;;;;;;;;;;;17.40;99.90;;;;;;4976578;28;19969;-43
2023/08/18 06:39:29;;;;;;;;;;;17.40;99.90;;;;;;4993951;28;19926;-43
2023/08/18 06:41:56;;;;;;;;;;;17.40;99.90;;;;;;5012461;28;19926;-44
2023/08/18 06:44:22;;;;;;;;;;;17.40;99.90;;;;;;4997147;28;19941;-43
2023/08/18 06:46:49;;;;;;;;;;;17.40;99.90;;;;;;5008739;28;19960;-43
2023/08/18 06:49:17;;;;;;;;;;;17.50;99.90;;;;;;4990867;28;19925;-44
2023/08/18 06:51:44;;;;;;;;;;;17.50;99.90;;;;;;5011332;28;19930;-43
2023/08/18 06:54:10;;;;;;;;;;;17.50;99.90;;;;;;5012748;28;19933;-44
2023/08/18 06:56:37;;;;;;;;;;;17.50;99.90;;;;;;5011284;28;20456;-43
2023/08/18 06:59:04;;;;;;;;;;;17.50;99.90;;;;;;5005135;28;19929;-43
2023/08/18 07:01:31;;;;;;;;;;;17.60;99.90;;;;;;5018394;28;19925;-44
2023/08/18 07:03:57;;;;;;;;;;;17.60;99.90;;;;;;5028136;28;20346;-43
2023/08/18 07:06:25;;;;;;;;;;;17.60;99.90;;;;;;5020593;28;20547;-43
2023/08/18 07:08:52;;;;;;;;;;;17.60;99.90;;;;;;5008909;28;19931;-43
2023/08/18 07:11:19;;;;;;;;;;;17.60;99.90;;;;;;5026089;28;20014;-44
2023/08/18 07:13:45;;;;;;;;;;;17.70;99.90;;;;;;5011051;28;19937;-43
2023/08/18 07:16:14;;;;;;;;;;;17.70;99.90;;;;;;5008248;28;19956;-42
2023/08/18 07:18:40;;;;;;;;;;;17.70;99.90;;;;;;5027673;28;19939;-44
2023/08/18 07:21:07;;;;;;;;;;;17.80;99.90;;;;;;4998435;28;20002;-44
2023/08/18 07:23:35;;;;;;;;;;;17.80;99.90;;;;;;5002558;28;19948;-43
2023/08/18 07:26:02;;;;;;;;;;;17.80;99.90;;;;;;4998763;28;20015;-43
2023/08/18 07:28:29;;;;;;;;;;;17.80;99.90;;;;;;5025133;28;19976;-43
2023/08/18 07:30:56;;;;;;;;;;;17.90;99.90;;;;;;5026665;28;19975;-43
2023/08/18 07:33:23;;;;;;;;;;;17.90;99.90;;;;;;5023793;28;19948;-44
2023/08/18 07:35:49;;;;;;;;;;;17.90;99.90;;;;;;5007866;28;20004;-44
2023/08/18 07:38:17;;;;;;;;;;;17.90;99.90;;;;;;5027774;28;19947;-43
2023/08/18 07:40:45;;;;;;;;;;;18.00;99.90;;;;;;5009754;28;20218;-44
2023/08/18 07:43:12;;;;;;;;;;;18.00;99.90;;;;;;5000777;28;19933;-43
2023/08/18 07:45:38;;;;;;;;;;;18.10;99.90;;;;;;5010347;28;19969;-43
2023/08/18 07:48:05;;;;;;;;;;;18.10;99.90;;;;;;4997842;28;20340;-43
2023/08/18 07:50:32;;;;;;;;;;;18.10;99.90;;;;;;5003962;28;20348;-42
2023/08/18 07:52:59;;;;;;;;;;;18.20;99.90;;;;;;5004480;28;20097;-43
2023/08/18 07:55:26;;;;;;;;;;;18.20;99.90;;;;;;5021454;28;20482;-43
2023/08/18 07:57:54;;;;;;;;;;;18.20;99.90;;;;;;5018780;28;19928;-43
2023/08/18 08:00:20;;;;;;;;;;;18.30;99.90;;;;;;5021450;28;19968;-44
2023/08/18 08:02:47;;;;;;;;;;;18.30;99.90;;;;;;5019701;28;19925;-43
2023/08/18 08:05:14;;;;;;;;;;;18.40;99.90;;;;;;5006520;28;19925;-43
2023/08/18 08:07:41;;;;;;;;;;;18.50;99.90;;;;;;5027613;28;19942;-41
2023/08/18 08:10:08;;;;;;;;;;;18.60;99.90;;;;;;5023002;28;19933;-43
2023/08/18 08:12:35;;;;;;;;;;;18.50;99.90;;;;;;5023349;28;19966;-43
2023/08/18 08:15:03;;;;;;;;;;;18.60;99.90;;;;;;5022094;28;19932;-43
2023/08/18 08:17:30;;;;;;;;;;;18.70;99.90;;;;;;5019557;28;19950;-43
2023/08/18 08:19:58;;;;;;;;;;;18.70;99.90;;;;;;5029623;28;19925;-43
2023/08/18 08:22:24;;;;;;;;;;;18.70;99.90;;;;;;5003296;28;19933;-43
2023/08/18 08:24:54;;;;;;;;;;;18.80;99.90;;;;;;5016310;28;20428;-43
2023/08/18 08:27:21;;;;;;;;;;;18.80;99.90;;;;;;5018681;28;20292;-43
2023/08/18 08:29:48;;;;;;;;;;;18.90;99.90;;;;;;5016148;28;20015;-43
2023/08/18 08:32:16;;;;;;;;;;;18.90;99.90;;;;;;5026151;28;19976;-43
2023/08/18 08:34:48;;;;;;;;;;;18.90;99.90;;;;;;5014349;28;19944;-43
2023/08/18 08:37:14;;;;;;;;;;;18.90;99.90;;;;;;5021398;28;20385;-43
2023/08/18 08:39:41;;;;;;;;;;;18.90;99.90;;;;;;5022901;28;19937;-43
2023/08/18 08:42:08;;;;;;;;;;;19.00;99.90;;;;;;5005174;28;19925;-43
2023/08/18 08:44:34;;;;;;;;;;;19.00;99.90;;;;;;5016872;28;19932;-43
2023/08/18 08:47:01;;;;;;;;;;;19.10;99.90;;;;;;4996545;28;20401;-42
2023/08/18 08:49:29;;;;;;;;;;;19.30;99.90;;;;;;5021456;28;20373;-44
2023/08/18 08:51:57;;;;;;;;;;;19.30;99.90;;;;;;5007013;28;20259;-44
2023/08/18 08:54:24;;;;;;;;;;;19.40;99.90;;;;;;5028973;28;19925;-42
2023/08/18 08:56:50;;;;;;;;;;;19.50;99.90;;;;;;5005439;28;19976;-44
2023/08/18 08:59:17;;;;;;;;;;;19.50;99.90;;;;;;5009963;28;19988;-43
2023/08/18 09:01:44;;;;;;;;;;;19.60;99.90;;;;;;5021965;28;20287;-43
2023/08/18 09:04:10;;;;;;;;;;;19.60;99.90;;;;;;5025550;28;19929;-43
2023/08/18 09:06:39;;;;;;;;;;;19.70;99.90;;;;;;5024191;28;20344;-43
2023/08/18 09:09:06;;;;;;;;;;;19.80;99.90;;;;;;5011071;28;20361;-44
2023/08/18 09:11:39;;;;;;;;;;;19.80;99.90;;;;;;5026002;28;19925;-43
2023/08/18 09:14:06;;;;;;;;;;;20.00;99.90;;;;;;5010472;28;19925;-42
2023/08/18 09:16:33;;;;;;;;;;;20.00;99.90;;;;;;5026901;28;19929;-43
2023/08/18 09:18:59;;;;;;;;;;;20.10;99.90;;;;;;5026986;28;19987;-43
2023/08/18 09:21:26;;;;;;;;;;;20.20;99.90;;;;;;5025090;28;20371;-43
2023/08/18 09:23:56;;;;;;;;;;;20.20;99.90;;;;;;5017456;28;19925;-43
2023/08/18 09:26:24;;;;;;;;;;;20.40;99.90;;;;;;5004098;28;19961;-43
2023/08/18 09:28:50;;;;;;;;;;;20.50;99.90;;;;;;5028683;28;19933;-43
2023/08/18 09:31:17;;;;;;;;;;;20.60;99.90;;;;;;5015062;28;20462;-43
2023/08/18 09:33:44;;;;;;;;;;;20.60;99.90;;;;;;5023625;28;19925;-43
2023/08/18 09:36:12;;;;;;;;;;;20.70;99.90;;;;;;5026416;28;19925;-43
2023/08/18 09:38:39;;;;;;;;;;;20.70;99.90;;;;;;5027961;28;19956;-43
2023/08/18 09:41:07;;;;;;;;;;;20.60;99.90;;;;;;5005972;28;19926;-44
2023/08/18 09:43:33;;;;;;;;;;;20.60;99.90;;;;;;5025894;28;20351;-43
2023/08/18 09:46:03;;;;;;;;;;;20.60;99.90;;;;;;5021366;28;19969;-43
2023/08/18 09:48:29;;;;;;;;;;;20.70;99.90;;;;;;5011682;28;19925;-42
2023/08/18 09:50:58;;;;;;;;;;;20.70;99.90;;;;;;5020338;28;20377;-44
2023/08/18 09:53:26;;;;;;;;;;;20.80;99.90;;;;;;5021643;28;19962;-43
2023/08/18 09:55:53;;;;;;;;;;;20.80;99.90;;;;;;4996563;28;20370;-43
2023/08/18 09:58:23;;;;;;;;;;;20.90;99.90;;;;;;5025665;28;19932;-43
2023/08/18 10:00:54;;;;;;;;;;;20.90;99.90;;;;;;5028115;28;19929;-44
2023/08/18 10:03:21;;;;;;;;;;;20.90;99.90;;;;;;5021669;28;19926;-45
2023/08/18 10:05:48;;;;;;;;;;;21.00;99.90;;;;;;5019902;28;19934;-43
2023/08/18 10:08:14;;;;;;;;;;;21.00;99.90;;;;;;5026972;28;20404;-43
2023/08/18 10:10:41;;;;;;;;;;;21.10;99.90;;;;;;5023780;28;19983;-43
2023/08/18 10:13:08;;;;;;;;;;;21.10;99.90;;;;;;5016733;28;19932;-44
2023/08/18 10:15:36;;;;;;;;;;;21.20;99.90;;;;;;5023125;28;19979;-44
2023/08/18 10:18:07;;;;;;;;;;;21.20;99.90;;;;;;5025723;28;20356;-43
2023/08/18 10:20:34;;;;;;;;;;;21.20;99.90;;;;;;5012186;28;20014;-44
2023/08/18 10:23:00;;;;;;;;;;;21.30;99.90;;;;;;5009113;28;20712;-43
2023/08/18 10:25:29;;;;;;;;;;;21.30;99.90;;;;;;5022963;28;19929;-43
2023/08/18 10:27:55;;;;;;;;;;;21.40;99.90;;;;;;5006687;28;19932;-43
2023/08/18 10:30:26;;;;;;;;;;;21.50;99.90;;;;;;5027078;28;19929;-43
2023/08/18 10:32:55;;;;;;;;;;;21.50;99.90;;;;;;4990595;28;20305;-44
2023/08/18 10:35:22;;;;;;;;;;;21.60;99.90;;;;;;5012876;28;20008;-44
2023/08/18 10:37:49;;;;;;;;;;;21.60;99.90;;;;;;5025268;28;19932;-43
2023/08/18 10:40:22;;;;;;;;;;;21.60;99.90;;;;;;5022788;28;19929;-44
2023/08/18 10:42:50;;;;;;;;;;;21.70;99.90;;;;;;5026960;28;20028;-43
2023/08/18 10:45:23;;;;;;;;;;;21.70;99.90;;;;;;5004487;28;19995;-43
2023/08/18 10:47:50;;;;;;;;;;;21.80;99.90;;;;;;5019735;28;19925;-43
2023/08/18 10:50:19;;;;;;;;;;;21.80;99.90;;;;;;5029946;28;19926;-44
2023/08/18 10:52:45;;;;;;;;;;;21.90;99.90;;;;;;5010818;28;19931;-44
2023/08/18 10:55:12;;;;;;;;;;;21.90;99.90;;;;;;5018686;28;19933;-43
2023/08/18 10:57:39;;;;;;;;;;;21.90;99.90;;;;;;5011841;28;19926;-44
2023/08/18 11:00:10;;;;;;;;;;;21.90;99.90;;;;;;5024864;28;20288;-44
2023/08/18 11:02:37;;;;;;;;;;;22.00;99.90;;;;;;5005910;28;19933;-43
2023/08/18 11:05:04;;;;;;;;;;;22.10;99.90;;;;;;5009971;28;20412;-44
2023/08/18 11:07:33;;;;;;;;;;;22.20;99.90;;;;;;5026558;28;20443;-43
2023/08/18 11:09:59;;;;;;;;;;;22.30;99.90;;;;;;5022033;28;19932;-42
2023/08/18 11:12:26;;;;;;;;;;;22.40;99.90;;;;;;5025603;28;20356;-44
2023/08/18 11:14:53;;;;;;;;;;;22.40;99.90;;;;;;5003194;28;19929;-44
2023/08/18 11:17:19;;;;;;;;;;;22.50;99.90;;;;;;5020461;28;19926;-44
2023/08/18 11:19:46;;;;;;;;;;;22.50;99.90;;;;;;5003748;28;19926;-44
2023/08/18 11:22:13;;;;;;;;;;;22.60;99.90;;;;;;5023865;28;20308;-44
2023/08/18 11:24:41;;;;;;;;;;;22.70;99.90;;;;;;5022196;28;19972;-44
2023/08/18 11:27:07;;;;;;;;;;;22.80;99.90;;;;;;5008079;28;19929;-44
2023/08/18 11:29:34;;;;;;;;;;;22.80;99.90;;;;;;5008095;28;19925;-44
2023/08/18 11:32:01;;;;;;;;;;;23.00;99.90;;;;;;5011425;28;19925;-43
2023/08/18 11:34:27;;;;;;;;;;;23.10;99.90;;;;;;5014786;28;19986;-44
2023/08/18 11:36:59;;;;;;;;;;;23.20;99.90;;;;;;5025620;28;20363;-44
2023/08/18 11:39:29;;;;;;;;;;;23.30;99.90;;;;;;5024713;28;19929;-44
2023/08/18 11:41:57;;;;;;;;;;;23.30;99.90;;;;;;5009920;28;19931;-43
2023/08/18 11:44:24;;;;;;;;;;;23.40;99.90;;;;;;5024820;28;19925;-43
2023/08/18 11:46:51;;;;;;;;;;;23.50;99.90;;;;;;5027593;28;19926;-44
2023/08/18 11:49:19;;;;;;;;;;;23.70;99.90;;;;;;5021389;28;20345;-42
2023/08/18 11:51:55;;;;;;;;;;;23.80;99.90;;;;;;5023939;28;20388;-44
2023/08/18 11:54:22;;;;;;;;;;;23.90;99.90;;;;;;5008620;28;19987;-44
2023/08/18 11:56:50;;;;;;;;;;;24.00;99.90;;;;;;5024188;28;19926;-43
2023/08/18 11:59:20;;;;;;;;;;;24.00;99.90;;;;;;5028109;28;19933;-44
2023/08/18 12:01:46;;;;;;;;;;;24.20;99.90;;;;;;5029766;28;20343;-44
2023/08/18 12:04:13;;;;;;;;;;;24.30;99.90;;;;;;5009370;28;19929;-43
2023/08/18 12:06:40;;;;;;;;;;;24.50;99.90;;;;;;5027514;28;19948;-43
2023/08/18 12:09:12;;;;;;;;;;;24.70;99.90;;;;;;5007738;28;19979;-43
2023/08/18 12:11:39;;;;;;;;;;;24.80;99.90;;;;;;5021992;28;20049;-42
2023/08/18 12:14:06;;;;;;;;;;;25.00;99.90;;;;;;5005306;28;19929;-43
2023/08/18 12:16:34;;;;;;;;;;;25.10;99.90;;;;;;5026504;28;19979;-44
2023/08/18 12:19:01;;;;;;;;;;;25.30;99.90;;;;;;5029169;28;19940;-44
2023/08/18 12:21:27;;;;;;;;;;;25.40;99.90;;;;;;5013369;28;19925;-43
2023/08/18 12:23:54;;;;;;;;;;;25.50;99.90;;;;;;5031247;28;19932;-44
2023/08/18 12:26:21;;;;;;;;;;;25.70;99.90;;;;;;5015698;28;20373;-44
2023/08/18 12:28:47;;;;;;;;;;;25.90;99.90;;;;;;5027518;28;19928;-42
2023/08/18 12:31:14;;;;;;;;;;;26.20;99.90;;;;;;5003686;28;19925;-44
2023/08/18 12:33:42;;;;;;;;;;;26.30;99.90;;;;;;5006204;28;20013;-44
2023/08/18 12:36:09;;;;;;;;;;;26.40;99.90;;;;;;5029598;28;19979;-44
2023/08/18 12:38:35;;;;;;;;;;;26.60;99.90;;;;;;4999876;28;20023;-43
2023/08/18 12:41:03;;;;;;;;;;;26.60;99.90;;;;;;4997998;28;19929;-43
2023/08/18 12:43:30;;;;;;;;;;;26.60;99.90;;;;;;5006450;28;19925;-44
2023/08/18 12:45:56;;;;;;;;;;;26.60;99.90;;;;;;5030648;28;19932;-44
2023/08/18 12:48:23;;;;;;;;;;;26.70;99.90;;;;;;5013030;28;19972;-44
2023/08/18 12:50:51;;;;;;;;;;;26.80;99.90;;;;;;5026853;28;20320;-43
2023/08/18 12:53:18;;;;;;;;;;;26.90;99.90;;;;;;5012612;28;19929;-44
2023/08/18 12:55:44;;;;;;;;;;;26.90;99.90;;;;;;5028661;28;19998;-44
2023/08/18 12:58:11;;;;;;;;;;;26.90;99.90;;;;;;5015071;28;19933;-44
2023/08/18 13:00:38;;;;;;;;;;;26.70;99.90;;;;;;5003701;28;19937;-44
2023/08/18 13:03:05;;;;;;;;;;;26.70;99.90;;;;;;5025067;28;19932;-44
2023/08/18 13:05:32;;;;;;;;;;;26.70;99.90;;;;;;5026503;28;19994;-44
2023/08/18 13:08:00;;;;;;;;;;;26.70;99.90;;;;;;5021341;28;19937;-44
2023/08/18 13:10:26;;;;;;;;;;;26.60;99.90;;;;;;5021797;28;20416;-44
2023/08/18 13:12:53;;;;;;;;;;;26.70;99.90;;;;;;5001001;28;19994;-44
2023/08/18 13:15:20;;;;;;;;;;;26.80;99.90;;;;;;5021524;28;19936;-44
2023/08/18 13:17:47;;;;;;;;;;;26.90;99.90;;;;;;5009122;28;19941;-44
2023/08/18 13:20:13;;;;;;;;;;;27.10;99.90;;;;;;5008798;28;19932;-44
2023/08/18 13:22:40;;;;;;;;;;;27.30;99.90;;;;;;5023489;28;19925;-44
2023/08/18 13:25:11;;;;;;;;;;;27.50;99.90;;;;;;5024155;28;19925;-44
2023/08/18 13:27:38;;;;;;;;;;;27.60;99.90;;;;;;5012324;28;19936;-44
2023/08/18 13:30:07;;;;;;;;;;;27.80;99.90;;;;;;5031336;28;19933;-44
2023/08/18 13:32:34;;;;;;;;;;;27.90;99.90;;;;;;5002729;28;19925;-44
2023/08/18 13:35:00;;;;;;;;;;;28.10;99.90;;;;;;5010187;28;19925;-44
2023/08/18 13:37:27;;;;;;;;;;;28.20;99.90;;;;;;5033868;28;19929;-44
2023/08/18 13:39:54;;;;;;;;;;;28.30;99.90;;;;;;5033017;28;20340;-44
2023/08/18 13:42:22;;;;;;;;;;;28.40;99.90;;;;;;5017466;28;19929;-44
2023/08/18 13:44:49;;;;;;;;;;;28.40;99.90;;;;;;5022174;28;19936;-43
2023/08/18 13:47:16;;;;;;;;;;;28.40;99.90;;;;;;5031502;28;19929;-44
2023/08/18 13:49:42;;;;;;;;;;;28.40;99.90;;;;;;5031512;28;19971;-44
2023/08/18 13:52:09;;;;;;;;;;;28.60;99.90;;;;;;5014296;28;19929;-44
2023/08/18 13:54:36;;;;;;;;;;;28.70;99.90;;;;;;5010187;28;20021;-41
2023/08/18 13:57:02;;;;;;;;;;;28.80;99.90;;;;;;5025596;28;19925;-43
2023/08/18 13:59:30;;;;;;;;;;;28.80;99.90;;;;;;5013921;28;20007;-44
2023/08/18 14:01:57;;;;;;;;;;;28.80;99.90;;;;;;5024044;28;19971;-44
2023/08/18 14:04:24;;;;;;;;;;;28.90;99.90;;;;;;5018194;28;19925;-44
2023/08/18 14:06:52;;;;;;;;;;;29.10;99.90;;;;;;5011869;28;19936;-44
2023/08/18 14:09:18;;;;;;;;;;;29.20;99.90;;;;;;5027866;28;19925;-44
2023/08/18 14:11:47;;;;;;;;;;;29.30;99.90;;;;;;5031689;28;19925;-45
2023/08/18 14:14:13;;;;;;;;;;;29.50;99.90;;;;;;5034268;28;19987;-44
2023/08/18 14:16:41;;;;;;;;;;;29.50;99.90;;;;;;5014928;28;19926;-43